Burley Municipal Airport Burley US
ICAO: KBYI
IATA: BYI
Category: Medium
Scheduled Services: No

Elevation: 4150 ft
TransAlt. 18000 ft.

Airport Communications:
TWIN FALLS APP/DEP:126.7
ASOS:135.575
SALT LAKE CITY CNTR:118.05
CTAF:122.9
BOISE RDO:122.05

KBYI Zoom In..

If you have problems with the map follow the link
https://www.worldairports.se/pages/airport.php?
ICAO=KBYI

Runways:

(A) RW 02 length 4092 ft width 80 ft
---- / hdg 22

(B) RW 06 length 4072 ft width 75 ft
---- / hdg 64

(C) RW 20 length 4092 ft width 80 ft
---- / hdg 202

(D) RW 24 length 4072 ft width 75 ft
---- / hdg 244

Location; KBYI
Day. 25 / Time. 08.53 Zulu
* Altimeter: 30.11
* Temperature: 01° c. 33.8°f.
* Wind from: 220° Speed 05 kn.
Dewpoint: -01° c.
Visibility: 10 Statute Miles.
Clouds: Scattered 2800 ft.
Clouds: Overcast 6000 ft.

KBYI 250853Z AUTO 22005KT 10SM SCT028 OVC060 01/M01 A3011 RMK AO2 SLP204 T00111006 51001


Wind From 220°
Speed 05 kn.

 
 
jpsmedia worldairports.se 2020   terms of use